Time;durP1;ratioP1;P1;durP2;ratioP2;P2;SDS_P1;SDS_P2;PMS_P1;PMS_P2;Temp;Humidity;BMP_temperature;BMP_pressure;BME280_temperature;BME280_humidity;BME280_pressure;Samples;Min_cycle;Max_cycle;Signal;HPM_P1;HPM_P2
2021/09/13 00:02:01;;;;;;;5.77;5.37;;;;;;;14.54;100.00;100598.69;5133778;27;20263;-72
2021/09/13 00:04:26;;;;;;;6.17;5.73;;;;;;;14.56;100.00;100597.19;5133678;27;20189;-72
2021/09/13 00:06:53;;;;;;;6.17;5.67;;;;;;;14.53;100.00;100594.31;5133959;27;20204;-72
2021/09/13 00:09:18;;;;;;;6.10;5.57;;;;;;;14.48;100.00;100600.84;5115301;27;20222;-72
2021/09/13 00:11:43;;;;;;;5.90;5.40;;;;;;;14.52;100.00;100604.53;5133693;27;20237;-72
2021/09/13 00:14:09;;;;;;;7.10;6.60;;;;;;;14.51;100.00;100604.84;5133590;27;20188;-72
2021/09/13 00:16:35;;;;;;;6.30;5.80;;;;;;;14.45;100.00;100628.16;5130329;27;20215;-72
2021/09/13 00:19:00;;;;;;;5.73;5.37;;;;;;;14.42;100.00;100606.81;5133423;27;20184;-73
2021/09/13 00:21:26;;;;;;;7.93;7.33;;;;;;;14.40;100.00;100611.84;5123288;27;20173;-72
2021/09/13 00:23:51;;;;;;;5.80;5.40;;;;;;;14.37;100.00;100607.03;5133258;27;20191;-72
2021/09/13 00:26:16;;;;;;;7.20;6.50;;;;;;;14.38;100.00;100609.44;5133267;27;20225;-72
2021/09/13 00:28:42;;;;;;;5.97;5.47;;;;;;;14.40;100.00;100609.09;5114779;27;20200;-72
2021/09/13 00:31:07;;;;;;;5.43;5.03;;;;;;;14.37;100.00;100607.81;5133358;27;20191;-72
2021/09/13 00:33:32;;;;;;;5.20;4.87;;;;;;;14.35;100.00;100603.81;5133131;27;20168;-72
2021/09/13 00:35:58;;;;;;;5.93;5.43;;;;;;;14.35;100.00;100612.84;5133169;27;20216;-72
2021/09/13 00:38:23;;;;;;;6.67;6.13;;;;;;;14.36;100.00;100608.16;5133167;27;20176;-72
2021/09/13 00:40:49;;;;;;;7.23;6.73;;;;;;;14.36;100.00;100613.66;5133064;27;20256;-72
2021/09/13 00:43:14;;;;;;;7.27;6.77;;;;;;;14.37;100.00;100609.75;5114498;27;20650;-72
2021/09/13 00:45:40;;;;;;;12.57;8.03;;;;;;;14.38;100.00;100614.94;5132871;27;20168;-72
2021/09/13 00:48:05;;;;;;;6.67;6.17;;;;;;;14.40;100.00;100614.59;5132922;27;20172;-72
2021/09/13 00:50:31;;;;;;;6.33;5.90;;;;;;;14.44;100.00;100610.06;5132836;27;20176;-72
2021/09/13 00:52:56;;;;;;;7.53;6.93;;;;;;;14.41;100.00;100606.00;5132856;27;20526;-72
2021/09/13 00:55:23;;;;;;;8.63;7.83;;;;;;;14.43;100.00;100608.44;5132595;27;20200;-72
2021/09/13 00:57:53;;;;;;;8.87;6.83;;;;;;;14.45;100.00;100617.16;5132557;27;20207;-72
2021/09/13 01:00:19;;;;;;;7.50;6.80;;;;;;;14.43;100.00;100609.22;5132697;27;20699;-72
2021/09/13 01:02:44;;;;;;;7.47;6.77;;;;;;;14.40;100.00;100609.09;5132690;27;20251;-72
2021/09/13 01:05:10;;;;;;;7.30;6.50;;;;;;;14.39;100.00;100611.03;5132407;27;20643;-72
2021/09/13 01:07:36;;;;;;;6.63;6.13;;;;;;;14.38;100.00;100614.94;5132491;27;20263;-72
2021/09/13 01:10:03;;;;;;;7.57;7.07;;;;;;;14.35;100.00;100612.03;5132460;27;20268;-72
2021/09/13 01:12:28;;;;;;;9.07;7.07;;;;;;;14.29;100.00;100606.72;5132319;27;20252;-72
2021/09/13 01:14:54;;;;;;;7.53;6.93;;;;;;;14.26;100.00;100604.66;5132074;27;20284;-72
2021/09/13 01:17:19;;;;;;;9.67;7.13;;;;;;;14.25;100.00;100603.03;5113957;27;20613;-72
2021/09/13 01:19:45;;;;;;;8.27;7.53;;;;;;;14.22;100.00;100606.44;5132343;27;20179;-72
2021/09/13 01:22:12;;;;;;;7.67;7.07;;;;;;;14.22;100.00;100605.66;5132405;27;20398;-72
2021/09/13 01:24:38;;;;;;;8.33;7.73;;;;;;;14.16;100.00;100607.75;5132133;27;20671;-72
2021/09/13 01:27:06;;;;;;;9.13;7.37;;;;;;;14.09;100.00;100610.25;5132146;27;20211;-72
2021/09/13 01:29:32;;;;;;;8.37;7.13;;;;;;;14.05;100.00;100606.56;5132197;27;20187;-72
2021/09/13 01:31:57;;;;;;;8.07;7.47;;;;;;;14.03;100.00;100617.03;5132168;27;20176;-72
2021/09/13 01:34:23;;;;;;;8.90;8.07;;;;;;;14.00;100.00;100607.53;5131938;27;20168;-73
2021/09/13 01:36:49;;;;;;;9.47;8.67;;;;;;;13.98;100.00;100604.31;5132001;27;20283;-72
2021/09/13 01:39:14;;;;;;;8.90;8.03;;;;;;;13.95;100.00;100609.66;5131575;27;20164;-72
2021/09/13 01:41:39;;;;;;;8.80;7.87;;;;;;;13.88;100.00;100612.91;5132014;27;20173;-72
2021/09/13 01:44:05;;;;;;;7.23;6.47;;;;;;;13.80;100.00;100632.16;5131974;27;20192;-72
2021/09/13 01:46:30;;;;;;;8.70;7.90;;;;;;;13.79;100.00;100623.13;5132084;27;20271;-72
2021/09/13 01:48:56;;;;;;;8.23;7.63;;;;;;;13.75;100.00;100618.63;5131979;27;20196;-72
2021/09/13 01:51:21;;;;;;;10.63;9.03;;;;;;;13.76;100.00;100623.78;5131940;27;20180;-73
2021/09/13 01:53:47;;;;;;;8.67;7.97;;;;;;;13.72;100.00;100622.00;5131634;27;20168;-72
2021/09/13 01:56:13;;;;;;;16.63;9.97;;;;;;;13.75;100.00;100633.16;5131471;27;20211;-72
2021/09/13 01:58:39;;;;;;;9.23;8.33;;;;;;;13.76;100.00;100628.47;5131728;27;20712;-72
2021/09/13 02:01:04;;;;;;;8.53;7.90;;;;;;;13.81;100.00;100620.84;5131698;27;20172;-72
2021/09/13 02:03:30;;;;;;;8.77;7.93;;;;;;;13.82;100.00;100624.41;5131648;27;20650;-72
2021/09/13 02:05:55;;;;;;;8.73;8.13;;;;;;;13.81;100.00;100631.84;5131366;27;20716;-73
2021/09/13 02:08:20;;;;;;;8.43;7.77;;;;;;;13.81;100.00;100642.81;5132114;27;20239;-72
2021/09/13 02:10:46;;;;;;;9.67;8.77;;;;;;;13.78;100.00;100634.44;5131751;28;20678;-72
2021/09/13 02:13:11;;;;;;;8.50;7.90;;;;;;;13.81;100.00;100642.03;5131413;28;20173;-72
2021/09/13 02:15:36;;;;;;;8.90;8.20;;;;;;;13.81;100.00;100642.03;5131359;28;20196;-72
2021/09/13 02:18:02;;;;;;;8.47;7.77;;;;;;;13.82;100.00;100640.88;5131591;28;20255;-72
2021/09/13 02:20:27;;;;;;;8.80;8.10;;;;;;;13.81;100.00;100637.34;5131430;28;20596;-72
2021/09/13 02:22:52;;;;;;;9.47;8.57;;;;;;;13.81;100.00;100653.00;5131396;28;20172;-72
2021/09/13 02:25:18;;;;;;;8.83;8.13;;;;;;;13.76;100.00;100643.00;5131403;28;20176;-72
2021/09/13 02:27:43;;;;;;;7.83;7.23;;;;;;;13.74;100.00;100636.22;5131321;28;20211;-72
2021/09/13 02:30:09;;;;;;;7.93;7.20;;;;;;;13.72;100.00;100639.28;5131411;28;20185;-72
2021/09/13 02:32:34;;;;;;;10.67;9.53;;;;;;;13.67;100.00;100645.78;5131554;28;20172;-72
2021/09/13 02:35:04;;;;;;;8.60;7.90;;;;;;;13.69;100.00;100639.94;5131031;28;20721;-72
2021/09/13 02:37:34;;;;;;;10.03;8.10;;;;;;;13.65;100.00;100639.00;5131344;28;20255;-72
2021/09/13 02:40:00;;;;;;;9.97;8.50;;;;;;;13.62;100.00;100639.66;5112903;28;20566;-72
2021/09/13 02:42:25;;;;;;;10.20;8.23;;;;;;;13.57;100.00;100634.31;5131307;28;20177;-72
2021/09/13 02:44:50;;;;;;;9.13;7.53;;;;;;;13.55;100.00;100637.41;5131142;28;20627;-72
2021/09/13 02:47:16;;;;;;;9.03;8.20;;;;;;;13.54;100.00;100640.47;5131167;28;20161;-72
2021/09/13 02:49:41;;;;;;;14.03;8.53;;;;;;;13.51;100.00;100649.38;5132053;27;20252;-73
2021/09/13 02:52:07;;;;;;;9.93;8.70;;;;;;;13.43;100.00;100647.44;5135108;27;20211;-72
2021/09/13 02:54:32;;;;;;;9.27;8.40;;;;;;;13.38;100.00;100648.41;5135021;27;20656;-72
2021/09/13 02:56:57;;;;;;;8.93;8.13;;;;;;;13.34;100.00;100648.25;5134865;27;20200;-72
2021/09/13 02:59:23;;;;;;;9.47;8.57;;;;;;;13.27;100.00;100656.16;5134974;27;20172;-72
2021/09/13 03:01:48;;;;;;;10.30;9.40;;;;;;;13.28;100.00;100662.47;5135521;27;20175;-72
2021/09/13 03:04:13;;;;;;;8.33;7.67;;;;;;;13.21;100.00;100662.97;5144227;27;20176;-72
2021/09/13 03:06:39;;;;;;;10.00;9.10;;;;;;;13.17;100.00;100659.22;5139869;27;20183;-72
2021/09/13 03:09:04;;;;;;;7.60;6.90;;;;;;;13.17;100.00;100656.50;5136298;27;20190;-73
2021/09/13 03:11:29;;;;;;;11.80;10.60;;;;;;;13.20;100.00;100668.78;5135461;27;20247;-72
2021/09/13 03:13:55;;;;;;;11.73;10.73;;;;;;;13.19;100.00;100661.69;5116368;27;20176;-72
2021/09/13 03:16:20;;;;;;;9.60;8.67;;;;;;;13.16;100.00;100668.56;5134781;27;20200;-72
2021/09/13 03:18:46;;;;;;;11.70;10.63;;;;;;;13.19;100.00;100667.97;5134766;27;20172;-72
2021/09/13 03:21:11;;;;;;;12.30;11.17;;;;;;;13.20;100.00;100671.53;5134986;27;20171;-72
2021/09/13 03:23:37;;;;;;;10.43;9.53;;;;;;;13.20;100.00;100655.88;5116457;27;20667;-72
2021/09/13 03:26:02;;;;;;;10.37;9.47;;;;;;;13.21;100.00;100656.66;5116192;27;20272;-72
2021/09/13 03:28:28;;;;;;;10.10;9.23;;;;;;;13.19;100.00;100662.47;5134572;27;20374;-72
2021/09/13 03:30:53;;;;;;;10.47;8.73;;;;;;;13.14;100.00;100654.38;5134418;27;20172;-72
2021/09/13 03:33:18;;;;;;;10.17;9.10;;;;;;;13.15;100.00;100660.66;5134174;27;20183;-72
2021/09/13 03:35:44;;;;;;;9.43;8.53;;;;;;;13.17;100.00;100661.97;5134033;27;20678;-72
2021/09/13 03:38:09;;;;;;;13.63;9.53;;;;;;;13.17;100.00;100652.94;5134175;27;20208;-72
2021/09/13 03:40:35;;;;;;;9.63;8.77;;;;;;;13.11;100.00;100661.31;5134179;27;20194;-72
2021/09/13 03:43:00;;;;;;;9.00;8.23;;;;;;;13.08;100.00;100652.94;5134320;27;20172;-72
2021/09/13 03:45:25;;;;;;;11.93;10.83;;;;;;;13.10;100.00;100661.63;5134126;27;20169;-72
2021/09/13 03:47:51;;;;;;;8.63;7.93;;;;;;;13.06;100.00;100653.25;5134020;27;20506;-72
2021/09/13 03:50:16;;;;;;;10.83;9.83;;;;;;;13.04;100.00;100660.19;5134201;27;20208;-72
2021/09/13 03:52:41;;;;;;;12.43;9.67;;;;;;;13.04;100.00;100646.47;5133927;27;20196;-72
2021/09/13 03:55:07;;;;;;;12.00;9.37;;;;;;;13.04;100.00;100657.47;5133889;27;20164;-72
2021/09/13 03:57:32;;;;;;;8.53;7.87;;;;;;;13.01;100.00;100656.13;5133573;27;20173;-72
2021/09/13 03:59:58;;;;;;;10.23;8.17;;;;;;;13.01;100.00;100658.06;5134084;27;20172;-72
2021/09/13 04:02:23;;;;;;;8.53;7.90;;;;;;;12.97;100.00;100668.09;5133331;27;20176;-72
2021/09/13 04:04:50;;;;;;;8.70;6.83;;;;;;;12.96;100.00;100648.09;5114824;27;20180;-72
2021/09/13 04:07:24;;;;;;;9.80;8.10;;;;;;;12.97;100.00;100655.19;5133559;27;20176;-72
2021/09/13 04:09:59;;;;;;;9.23;8.07;;;;;;;12.96;100.00;100659.06;5133803;27;20177;-72
2021/09/13 04:12:25;;;;;;;9.97;6.77;;;;;;;12.94;100.00;100649.53;5115537;27;20662;-72
2021/09/13 04:14:50;;;;;;;8.33;7.63;;;;;;;12.92;100.00;100657.28;5133274;27;20296;-72
2021/09/13 04:17:16;;;;;;;9.30;8.47;;;;;;;12.90;100.00;100665.84;5133414;27;20185;-72
2021/09/13 04:19:42;;;;;;;8.50;7.73;;;;;;;12.90;100.00;100665.03;5133310;27;20172;-72
2021/09/13 04:22:08;;;;;;;8.43;7.73;;;;;;;12.87;100.00;100662.91;5133299;27;20529;-72
2021/09/13 04:24:34;;;;;;;13.37;6.93;;;;;;;12.82;100.00;100650.97;5132971;27;20659;-72
2021/09/13 04:26:59;;;;;;;8.10;7.23;;;;;;;12.74;100.00;100649.03;5133106;27;20180;-72
2021/09/13 04:29:25;;;;;;;6.90;6.40;;;;;;;12.75;100.00;100652.59;5133128;27;20172;-72
2021/09/13 04:31:50;;;;;;;7.13;6.63;;;;;;;12.70;100.00;100649.97;5133293;27;20195;-72
2021/09/13 04:34:15;;;;;;;7.53;6.93;;;;;;;12.66;100.00;100651.75;5132988;27;20263;-72
2021/09/13 04:36:41;;;;;;;8.13;7.50;;;;;;;12.62;100.00;100657.09;5133060;27;20220;-72
2021/09/13 04:39:06;;;;;;;7.40;6.77;;;;;;;12.59;100.00;100654.19;5132928;27;20207;-72
2021/09/13 04:41:31;;;;;;;7.50;6.57;;;;;;;12.57;100.00;100646.25;5132984;27;20176;-72
2021/09/13 04:43:57;;;;;;;6.73;6.23;;;;;;;12.60;100.00;100650.31;5132842;27;20208;-72
2021/09/13 04:46:22;;;;;;;7.67;6.90;;;;;;;12.61;100.00;100646.44;5132743;27;20172;-72
2021/09/13 04:48:48;;;;;;;6.30;4.40;;;;;;;12.57;100.00;100651.72;5132724;27;20305;-72
2021/09/13 04:51:13;;;;;;;7.37;6.60;;;;;;;12.57;100.00;100651.72;5132730;27;20255;-72
2021/09/13 04:53:38;;;;;;;8.20;6.77;;;;;;;12.59;100.00;100652.25;5132524;27;20249;-72
2021/09/13 04:56:04;;;;;;;6.13;5.63;;;;;;;12.58;100.00;100667.06;5132160;27;20651;-72
2021/09/13 04:58:29;;;;;;;5.70;5.20;;;;;;;12.57;100.00;100679.16;5132756;27;20172;-72
2021/09/13 05:00:55;;;;;;;6.03;5.43;;;;;;;12.55;100.00;100667.69;5132909;27;20251;-73
2021/09/13 05:03:20;;;;;;;6.37;5.87;;;;;;;12.57;100.00;100664.63;5132408;27;20184;-72
2021/09/13 05:05:45;;;;;;;6.83;6.30;;;;;;;12.59;100.00;100667.88;5132222;27;20635;-72
2021/09/13 05:08:11;;;;;;;7.40;6.23;;;;;;;12.59;100.00;100665.94;5113975;27;20172;-72
2021/09/13 05:10:36;;;;;;;6.10;5.60;;;;;;;12.61;100.00;100680.13;5132231;27;20309;-72
2021/09/13 05:13:02;;;;;;;6.63;6.13;;;;;;;12.65;100.00;100683.84;5131563;27;20200;-71
2021/09/13 05:15:27;;;;;;;7.10;5.37;;;;;;;12.67;100.00;100678.84;5131832;27;20192;-72
2021/09/13 05:17:53;;;;;;;6.30;5.27;;;;;;;12.66;100.00;100663.53;5132318;27;20263;-72
2021/09/13 05:20:18;;;;;;;6.70;6.10;;;;;;;12.68;100.00;100672.25;5132162;27;20187;-72
2021/09/13 05:22:44;;;;;;;6.30;5.70;;;;;;;12.69;100.00;100676.59;5132116;27;20172;-72
2021/09/13 05:25:10;;;;;;;5.57;5.13;;;;;;;12.68;100.00;100680.47;5131890;27;20693;-73
2021/09/13 05:27:35;;;;;;;6.13;5.63;;;;;;;12.71;100.00;100679.00;5132330;27;20175;-72
2021/09/13 05:30:00;;;;;;;7.00;6.40;;;;;;;12.70;100.00;100691.09;5132197;27;20187;-73
2021/09/13 05:32:26;;;;;;;6.93;6.20;;;;;;;12.69;100.00;100684.81;5131909;27;20195;-73
2021/09/13 05:34:52;;;;;;;7.60;6.90;;;;;;;12.69;100.00;100681.28;5125888;27;20188;-72
2021/09/13 05:37:17;;;;;;;7.93;6.30;;;;;;;12.69;100.00;100684.81;5127477;27;20212;-73
2021/09/13 05:39:43;;;;;;;8.37;7.63;;;;;;;12.69;100.00;100690.31;5131910;27;20247;-72
2021/09/13 05:42:08;;;;;;;7.33;6.50;;;;;;;12.68;100.00;100690.63;5132096;27;20404;-72
2021/09/13 05:44:33;;;;;;;7.43;6.73;;;;;;;12.67;100.00;100687.06;5111927;27;20249;-72
2021/09/13 05:46:59;;;;;;;11.17;8.07;;;;;;;12.68;100.00;100699.66;5129050;27;20325;-73
2021/09/13 05:49:25;;;;;;;8.27;7.33;;;;;;;12.69;100.00;100690.31;5131572;27;20627;-73
2021/09/13 05:51:51;;;;;;;7.17;6.57;;;;;;;12.70;100.00;100689.16;5131864;27;20188;-72
2021/09/13 05:54:24;;;;;;;8.60;7.90;;;;;;;12.68;100.00;100688.69;5124333;27;20203;-73
2021/09/13 05:56:50;;;;;;;8.23;7.57;;;;;;;12.68;100.00;100691.44;5131284;27;20583;-72
2021/09/13 05:59:16;;;;;;;10.17;6.33;;;;;;;12.71;100.00;100670.78;5131449;27;20172;-74
2021/09/13 06:01:42;;;;;;;8.47;7.77;;;;;;;12.74;100.00;100681.94;5131808;27;20205;-73
2021/09/13 06:04:07;;;;;;;9.33;8.43;;;;;;;12.82;100.00;100686.63;5131408;27;20317;-72
2021/09/13 06:06:33;;;;;;;7.50;6.40;;;;;;;12.87;100.00;100685.66;5131644;27;20631;-73
2021/09/13 06:08:58;;;;;;;7.97;7.33;;;;;;;12.93;100.00;100689.88;5131710;27;20168;-72
2021/09/13 06:11:26;;;;;;;6.83;6.33;;;;;;;12.98;100.00;100689.69;5131694;27;20171;-72
2021/09/13 06:13:52;;;;;;;6.80;6.10;;;;;;;13.00;100.00;100689.38;5131729;28;20176;-72
2021/09/13 06:16:17;;;;;;;7.00;6.40;;;;;;;13.00;100.00;100695.66;5131378;28;20188;-73
2021/09/13 06:18:43;;;;;;;6.27;4.53;;;;;;;13.01;100.00;100691.78;5131443;28;20644;-73
2021/09/13 06:21:08;;;;;;;5.87;5.40;;;;;;;13.02;100.00;100698.13;5131484;28;20271;-73
2021/09/13 06:23:33;;;;;;;7.33;5.07;;;;;;;13.02;100.00;100695.38;5132007;27;20168;-72
2021/09/13 06:25:59;;;;;;;7.03;5.53;;;;;;;13.01;100.00;100704.69;5135858;27;20172;-73
2021/09/13 06:28:24;;;;;;;6.80;5.77;;;;;;;13.05;100.00;100716.66;5135669;27;20175;-73
2021/09/13 06:30:50;;;;;;;6.83;5.70;;;;;;;13.09;100.00;100714.88;5135664;27;20221;-73
2021/09/13 06:33:17;;;;;;;10.07;6.70;;;;;;;13.15;100.00;100723.75;5117081;27;20543;-73
2021/09/13 06:35:43;;;;;;;6.53;5.93;;;;;;;13.16;100.00;100715.19;5135383;27;20192;-73
2021/09/13 06:38:08;;;;;;;7.93;7.23;;;;;;;13.21;100.00;100722.53;5135642;27;20175;-73
2021/09/13 06:40:35;;;;;;;8.53;6.77;;;;;;;13.27;100.00;100732.19;5135422;27;20221;-74
2021/09/13 06:43:00;;;;;;;6.57;5.97;;;;;;;13.33;100.00;100736.41;5134524;27;20186;-73
2021/09/13 06:45:25;;;;;;;3.00;2.73;;;;;;;13.43;100.00;100730.56;5131418;27;20647;-73
2021/09/13 06:47:51;;;;;;;6.67;4.00;;;;;;;13.49;100.00;100729.31;5135614;27;20176;-74
2021/09/13 06:50:25;;;;;;;5.07;4.67;;;;;;;13.62;100.00;100742.06;5135191;27;20171;-75
2021/09/13 06:52:52;;;;;;;6.57;5.57;;;;;;;13.69;100.00;100736.84;5135362;27;20164;-72
2021/09/13 06:55:18;;;;;;;4.93;4.00;;;;;;;13.75;100.00;100737.50;5135099;27;20196;-73
2021/09/13 06:57:43;;;;;;;4.20;2.87;;;;;;;13.82;100.00;100740.56;5134986;27;20173;-74
2021/09/13 07:00:14;;;;;;;3.70;3.40;;;;;;;13.88;100.00;100733.75;5135375;27;20164;-72
2021/09/13 07:02:43;;;;;;;2.97;2.53;;;;;;;13.97;100.00;100741.97;5135127;27;20164;-72
2021/09/13 07:05:09;;;;;;;4.40;3.40;;;;;;;14.05;100.00;100745.84;5134854;27;20176;-72
2021/09/13 07:07:35;;;;;;;2.73;2.53;;;;;;;14.12;100.00;100748.91;5116464;27;20172;-72
2021/09/13 07:10:02;;;;;;;3.47;2.97;;;;;;;14.10;100.00;100745.66;5115573;27;20165;-72
2021/09/13 07:12:28;;;;;;;7.33;4.13;;;;;;;14.14;100.00;100744.69;5134663;27;20252;-73
2021/09/13 07:14:53;;;;;;;6.00;4.50;;;;;;;14.26;100.00;100749.50;5134486;27;20183;-73
2021/09/13 07:17:18;;;;;;;4.57;4.17;;;;;;;14.28;100.00;100749.97;5134530;27;20246;-72
2021/09/13 07:19:45;;;;;;;3.80;3.50;;;;;;;14.35;100.00;100752.22;5134720;27;20229;-73
2021/09/13 07:22:11;;;;;;;3.60;2.90;;;;;;;14.42;100.00;100756.06;5134641;27;20318;-73
2021/09/13 07:24:37;;;;;;;3.93;3.63;;;;;;;14.46;100.00;100756.25;5134161;27;20575;-72
2021/09/13 07:27:02;;;;;;;4.77;3.27;;;;;;;14.55;100.00;100757.03;5134424;27;20196;-72
2021/09/13 07:29:28;;;;;;;3.10;2.70;;;;;;;14.64;100.00;100760.56;5134394;27;20165;-72
2021/09/13 07:31:53;;;;;;;4.80;3.10;;;;;;;14.73;100.00;100774.25;5134552;27;20176;-72
2021/09/13 07:34:18;;;;;;;2.27;2.17;;;;;;;14.72;100.00;100767.13;5134083;27;20168;-73
2021/09/13 07:36:43;;;;;;;2.77;2.57;;;;;;;14.69;100.00;100771.34;5133406;27;20215;-73
2021/09/13 07:39:09;;;;;;;2.20;1.70;;;;;;;14.71;100.00;100760.00;5134265;27;20203;-73
2021/09/13 07:41:34;;;;;;;3.47;3.17;;;;;;;14.77;100.00;100770.50;5134187;27;20586;-73
2021/09/13 07:43:59;;;;;;;2.90;2.33;;;;;;;14.88;100.00;100768.16;5133625;27;20636;-73
2021/09/13 07:46:25;;;;;;;2.77;2.17;;;;;;;15.02;100.00;100771.50;5133879;27;20247;-73
2021/09/13 07:48:50;;;;;;;2.80;2.60;;;;;;;15.18;100.00;100766.19;5134129;27;20168;-73
2021/09/13 07:51:15;;;;;;;4.13;3.00;;;;;;;15.17;100.00;100773.66;5133910;27;20180;-72
2021/09/13 07:53:41;;;;;;;1.20;1.17;;;;;;;15.12;100.00;100771.09;5133746;27;20176;-73
2021/09/13 07:56:06;;;;;;;4.00;3.70;;;;;;;15.10;100.00;100769.84;5133488;27;20221;-73
2021/09/13 07:58:32;;;;;;;4.23;2.93;;;;;;;15.11;100.00;100772.25;5134088;27;20181;-73
2021/09/13 08:00:57;;;;;;;4.33;2.80;;;;;;;15.15;100.00;100775.94;5134152;27;20161;-72
2021/09/13 08:03:23;;;;;;;3.57;3.27;;;;;;;15.19;100.00;100778.84;5115297;27;20188;-73
2021/09/13 08:05:48;;;;;;;4.33;3.87;;;;;;;15.28;100.00;100778.78;5133407;27;20263;-73
2021/09/13 08:08:14;;;;;;;4.00;3.23;;;;;;;15.39;100.00;100782.75;5133871;27;20237;-72
2021/09/13 08:10:39;;;;;;;3.60;3.37;;;;;;;15.41;100.00;100786.78;5133641;27;20172;-73
2021/09/13 08:13:05;;;;;;;2.73;2.50;;;;;;;15.31;100.00;100787.16;5133638;27;20194;-73
2021/09/13 08:15:30;;;;;;;4.23;3.63;;;;;;;15.24;100.00;100786.09;5133432;27;20224;-72
2021/09/13 08:17:55;;;;;;;4.37;3.70;;;;;;;15.31;100.00;100798.19;5133492;27;20172;-73
2021/09/13 08:20:21;;;;;;;5.20;3.63;;;;;;;15.52;100.00;100800.97;5133513;27;20225;-73
2021/09/13 08:22:46;;;;;;;3.73;3.43;;;;;;;15.67;100.00;100802.31;5133612;27;20177;-72
2021/09/13 08:25:12;;;;;;;3.80;3.50;;;;;;;15.76;100.00;100794.78;5133077;27;20688;-72
2021/09/13 08:27:38;;;;;;;5.00;4.50;;;;;;;15.78;100.00;100798.03;5133412;27;20532;-73
2021/09/13 08:30:05;;;;;;;4.30;4.00;;;;;;;15.91;100.00;100810.72;5133246;27;20538;-73
2021/09/13 08:32:30;;;;;;;3.10;2.80;;;;;;;16.01;100.00;100810.28;5133307;27;20171;-73
2021/09/13 08:34:56;;;;;;;3.40;2.93;;;;;;;16.04;100.00;100814.28;5132921;27;20556;-68
2021/09/13 08:37:21;;;;;;;3.37;3.13;;;;;;;16.07;100.00;100819.16;5133194;27;20219;-75
2021/09/13 08:39:47;;;;;;;3.00;2.80;;;;;;;16.09;100.00;100821.56;5133476;27;20169;-75
2021/09/13 08:42:12;;;;;;;4.73;3.53;;;;;;;16.10;100.00;100823.97;5133068;27;20251;-74
2021/09/13 08:44:40;;;;;;;3.63;3.17;;;;;;;16.14;100.00;100824.91;5132813;27;20168;-74
2021/09/13 08:47:13;;;;;;;2.80;2.47;;;;;;;16.23;100.00;100827.59;5132031;27;20217;-74
2021/09/13 08:49:40;;;;;;;3.50;2.80;;;;;;;16.36;100.00;100834.75;5133123;27;20168;-75
2021/09/13 08:52:06;;;;;;;3.10;2.50;;;;;;;16.48;100.00;100837.53;5132847;27;20169;-75
2021/09/13 08:54:35;;;;;;;2.03;1.93;;;;;;;16.57;100.00;100838.25;5127224;27;20300;-74
2021/09/13 08:57:05;;;;;;;3.03;2.73;;;;;;;16.62;100.00;100834.44;5118446;27;20284;-75
2021/09/13 08:59:38;;;;;;;2.70;2.10;;;;;;;16.70;100.00;100843.81;5132201;27;20184;-75
2021/09/13 09:02:05;;;;;;;3.03;1.63;;;;;;;16.72;100.00;100847.03;5132859;27;20191;-75
2021/09/13 09:04:31;;;;;;;1.50;1.40;;;;;;;16.74;100.00;100837.25;5131835;27;20210;-75
2021/09/13 09:07:09;;;;;;;2.07;1.40;;;;;;;16.70;100.00;100841.84;5132557;27;20176;-75
2021/09/13 09:09:35;;;;;;;1.70;1.60;;;;;;;16.69;100.00;100840.25;5131764;27;20181;-75
2021/09/13 09:12:05;;;;;;;2.63;2.00;;;;;;;16.77;100.00;100836.56;5127524;27;20241;-75
2021/09/13 09:14:42;;;;;;;1.80;1.63;;;;;;;16.83;100.00;100842.69;5131933;27;20309;-75
2021/09/13 09:17:08;;;;;;;3.17;2.17;;;;;;;16.87;100.00;100838.06;5132788;27;20208;-74
2021/09/13 09:19:34;;;;;;;3.40;1.63;;;;;;;16.88;100.00;100846.00;5138750;27;20175;-74
2021/09/13 09:22:20;;;;;;;3.27;2.10;;;;;;;16.97;100.00;100845.91;5138261;27;20172;-74
2021/09/13 09:24:46;;;;;;;5.47;2.50;;;;;;;16.85;100.00;100841.19;5132965;27;20237;-74
2021/09/13 09:27:12;;;;;;;2.63;2.37;;;;;;;16.85;100.00;100856.94;5128789;27;20745;-74
2021/09/13 09:29:37;;;;;;;2.40;2.20;;;;;;;16.97;100.00;100850.63;5130999;27;20255;-76
2021/09/13 09:32:03;;;;;;;2.50;2.10;;;;;;;17.00;100.00;100847.16;5132524;27;20260;-74
2021/09/13 09:34:33;;;;;;;1.77;1.67;;;;;;;17.08;100.00;100849.03;5132176;27;20175;-73
2021/09/13 09:36:59;;;;;;;1.90;1.80;;;;;;;17.11;100.00;100859.38;5132061;27;20200;-73
2021/09/13 09:39:32;;;;;;;1.70;1.60;;;;;;;17.19;100.00;100853.72;5132207;27;20172;-73
2021/09/13 09:41:58;;;;;;;2.63;1.90;;;;;;;17.28;100.00;100855.56;5132041;27;20176;-73
2021/09/13 09:44:25;;;;;;;2.90;2.50;;;;;;;17.36;100.00;100855.44;5132117;27;20176;-73
2021/09/13 09:46:53;;;;;;;4.83;2.43;;;;;;;17.38;99.64;100858.66;5131983;27;20255;-73
2021/09/13 09:49:21;;;;;;;1.87;1.77;;;;;;;17.52;100.00;100847.25;5131734;27;20179;-73
2021/09/13 09:51:55;;;;;;;2.43;1.70;;;;;;;17.52;99.01;100850.00;5131995;27;20250;-73
2021/09/13 09:54:26;;;;;;;4.10;2.00;;;;;;;17.55;98.43;100850.13;5132160;27;20317;-74
2021/09/13 09:57:06;;;;;;;1.60;1.50;;;;;;;17.48;97.94;100843.56;5131980;27;20255;-74
2021/09/13 09:59:40;;;;;;;2.10;1.80;;;;;;;17.49;100.00;100840.44;5130295;27;20176;-74
2021/09/13 10:02:17;;;;;;;2.63;2.40;;;;;;;17.31;100.00;100843.81;5126786;27;20267;-74
2021/09/13 10:04:45;;;;;;;4.93;1.90;;;;;;;17.22;100.00;100835.66;5112180;28;20234;-74
2021/09/13 10:07:14;;;;;;;6.37;2.20;;;;;;;17.26;100.00;100839.34;5131779;27;20172;-74
2021/09/13 10:09:41;;;;;;;1.60;1.50;;;;;;;17.30;100.00;100836.69;5131535;27;20181;-75
2021/09/13 10:12:06;;;;;;;1.90;1.70;;;;;;;17.24;100.00;100834.16;5130881;27;20520;-74
2021/09/13 10:14:33;;;;;;;3.33;1.73;;;;;;;17.19;100.00;100830.81;5130965;27;20228;-73
2021/09/13 10:16:58;;;;;;;2.80;1.57;;;;;;;17.32;100.00;100835.19;5131365;27;20196;-73
2021/09/13 10:19:26;;;;;;;3.27;1.43;;;;;;;17.33;100.00;100830.47;5131394;27;20179;-73
2021/09/13 10:21:52;;;;;;;2.47;1.60;;;;;;;17.41;100.00;100833.09;5131682;27;20276;-73
2021/09/13 10:24:22;;;;;;;4.23;2.07;;;;;;;16.91;100.00;100827.94;5130998;27;20177;-73
2021/09/13 10:26:51;;;;;;;1.90;1.70;;;;;;;16.96;100.00;100830.50;5131352;27;20461;-73
2021/09/13 10:29:21;;;;;;;2.47;2.03;;;;;;;16.84;100.00;100831.28;5131477;27;20179;-73
2021/09/13 10:31:46;;;;;;;2.23;1.70;;;;;;;17.16;100.00;100829.56;5131469;27;20180;-73
2021/09/13 10:34:36;;;;;;;3.37;2.30;;;;;;;16.93;100.00;100825.69;5130905;27;20195;-73
2021/09/13 10:37:03;;;;;;;2.80;2.20;;;;;;;16.90;100.00;100821.63;5131190;27;20199;-73
2021/09/13 10:39:56;;;;;;;3.47;2.17;;;;;;;16.97;100.00;100818.31;5131030;28;20192;-73
2021/09/13 10:42:33;;;;;;;2.33;2.13;;;;;;;17.30;100.00;100825.63;5131041;28;20704;-73
2021/09/13 10:45:27;;;;;;;2.50;2.30;;;;;;;17.31;100.00;100835.53;5130796;27;20639;-73
2021/09/13 10:47:58;;;;;;;3.57;2.60;;;;;;;17.45;100.00;100833.22;5131012;27;20256;-73
2021/09/13 10:50:42;;;;;;;3.30;2.13;;;;;;;17.56;100.00;100820.53;5131089;27;20243;-73
2021/09/13 10:53:16;;;;;;;4.10;2.70;;;;;;;17.72;100.00;100823.41;5131147;27;20208;-73
2021/09/13 10:55:45;;;;;;;2.37;2.17;;;;;;;17.57;100.00;100830.44;5130614;27;20294;-73
2021/09/13 10:58:12;;;;;;;7.27;2.73;;;;;;;17.87;100.00;100836.47;5130873;27;20200;-73
2021/09/13 11:00:37;;;;;;;2.33;2.03;;;;;;;17.97;100.00;100835.19;5131037;27;20183;-73
2021/09/13 11:03:30;;;;;;;4.80;2.20;;;;;;;18.00;100.00;100834.47;5130950;27;20172;-73
2021/09/13 11:06:13;;;;;;;3.40;3.10;;;;;;;17.84;98.71;100835.22;5118576;27;20715;-73
2021/09/13 11:08:45;;;;;;;2.80;2.33;;;;;;;17.84;100.00;100824.16;5112451;28;20304;-74
2021/09/13 11:11:10;;;;;;;3.30;3.00;;;;;;;18.05;99.20;100823.94;5129575;27;20177;-73
2021/09/13 11:13:36;;;;;;;2.57;2.33;;;;;;;17.96;99.50;100828.84;5134390;27;20227;-74
2021/09/13 11:16:02;;;;;;;5.37;2.40;;;;;;;17.82;100.00;100826.47;5134544;27;20196;-81